createdAt,value
2023-01-11T00:01:31.188Z,96859.47
2023-01-11T00:03:58.826Z,96853.31
2023-01-11T00:06:25.742Z,96843.91
2023-01-11T00:08:52.558Z,96837.47
2023-01-11T00:11:19.739Z,96848.25
2023-01-11T00:13:46.586Z,96839.25
2023-01-11T00:16:14.209Z,96837.31
2023-01-11T00:18:41.137Z,96827.75
2023-01-11T00:21:09.114Z,96834.19
2023-01-11T00:23:37.764Z,96829.53
2023-01-11T00:26:12.020Z,96823.53
2023-01-11T00:28:39.203Z,96818.63
2023-01-11T00:31:06.177Z,96819.28
2023-01-11T00:33:33.043Z,96817.25
2023-01-11T00:36:00.010Z,96816.28
2023-01-11T00:38:45.641Z,96807.53
2023-01-11T00:41:33.946Z,96808.91
2023-01-11T00:44:19.817Z,96801.50
2023-01-11T00:47:05.013Z,96795.09
2023-01-11T00:49:31.977Z,96803.16
2023-01-11T00:51:59.313Z,96790.00
2023-01-11T00:54:26.216Z,96793.28
2023-01-11T00:56:53.025Z,96789.75
2023-01-11T00:59:19.865Z,96799.03
2023-01-11T01:01:46.677Z,96788.09
2023-01-11T01:04:13.490Z,96793.03
2023-01-11T01:06:40.408Z,96793.03
2023-01-11T01:09:07.356Z,96794.50
2023-01-11T01:11:34.213Z,96792.97
2023-01-11T01:14:19.814Z,96797.09
2023-01-11T01:16:47.784Z,96789.41
2023-01-11T01:19:14.820Z,96790.75
2023-01-11T01:21:41.842Z,96795.38
2023-01-11T01:24:09.355Z,96794.00
2023-01-11T01:26:36.317Z,96786.06
2023-01-11T01:29:03.989Z,96783.16
2023-01-11T01:31:30.984Z,96779.75
2023-01-11T01:33:57.897Z,96790.72
2023-01-11T01:36:24.968Z,96796.47
2023-01-11T01:38:52.124Z,96793.19
2023-01-11T01:41:19.388Z,96803.81
2023-01-11T01:43:57.933Z,96798.88
2023-01-11T01:46:30.241Z,96794.50
2023-01-11T01:49:04.123Z,96793.41
2023-01-11T01:51:52.301Z,96792.03
2023-01-11T01:54:25.028Z,96798.31
2023-01-11T01:56:59.064Z,96792.00
2023-01-11T01:59:28.114Z,96797.72
2023-01-11T02:01:56.178Z,96788.28
2023-01-11T02:04:28.901Z,96791.72
2023-01-11T02:07:17.154Z,96790.06
2023-01-11T02:10:10.223Z,96774.19
2023-01-11T02:12:50.992Z,96766.53
2023-01-11T02:15:21.492Z,96764.63
2023-01-11T02:17:48.389Z,96765.28
2023-01-11T02:20:49.256Z,96765.94
2023-01-11T02:23:29.470Z,96763.34
2023-01-11T02:26:32.527Z,96757.19
2023-01-11T02:29:29.585Z,96756.38
2023-01-11T02:32:27.076Z,96756.38
2023-01-11T02:35:09.707Z,96748.72
2023-01-11T02:37:51.337Z,96748.19
2023-01-11T02:40:26.951Z,96735.34
2023-01-11T02:43:47.468Z,96736.22
2023-01-11T02:46:40.101Z,96718.41
2023-01-11T02:49:24.222Z,96725.25
2023-01-11T02:51:57.860Z,96722.88
2023-01-11T02:54:25.005Z,96719.44
2023-01-11T02:56:59.108Z,96719.44
2023-01-11T02:59:33.372Z,96713.94
2023-01-11T03:02:00.573Z,96718.56
2023-01-11T03:04:31.410Z,96720.50
2023-01-11T03:07:10.159Z,96704.00
2023-01-11T03:10:01.612Z,96714.13
2023-01-11T03:13:14.558Z,96706.69
2023-01-11T03:16:05.790Z,96699.56
2023-01-11T03:18:46.633Z,96695.69
2023-01-11T03:21:48.937Z,96690.50
2023-01-11T03:24:32.317Z,96686.78
2023-01-11T03:27:20.957Z,96683.75
2023-01-11T03:29:54.485Z,96677.84
2023-01-11T03:32:33.083Z,96682.47
2023-01-11T03:35:14.906Z,96671.78
2023-01-11T03:37:55.983Z,96663.28
2023-01-11T03:40:30.073Z,96661.66
2023-01-11T03:43:10.829Z,96657.06
2023-01-11T03:46:08.746Z,96671.84
2023-01-11T03:48:49.280Z,96656.69
2023-01-11T03:51:27.237Z,96653.19
2023-01-11T03:54:01.951Z,96653.47
2023-01-11T03:57:10.778Z,96647.31
2023-01-11T03:59:39.697Z,96640.34
2023-01-11T04:02:22.705Z,96630.75
2023-01-11T04:04:49.545Z,96633.03
2023-01-11T04:07:16.579Z,96637.00
2023-01-11T04:09:43.412Z,96634.22
2023-01-11T04:12:10.370Z,96627.91
2023-01-11T04:14:37.742Z,96629.22
2023-01-11T04:17:05.378Z,96624.03
2023-01-11T04:19:32.328Z,96632.50
2023-01-11T04:21:59.141Z,96630.25
2023-01-11T04:24:26.039Z,96625.56
2023-01-11T04:26:52.834Z,96622.44
2023-01-11T04:29:19.659Z,96629.97
2023-01-11T04:31:46.481Z,96615.16
2023-01-11T04:34:13.556Z,96622.16
2023-01-11T04:36:40.546Z,96625.06
2023-01-11T04:39:10.608Z,96623.47
2023-01-11T04:41:57.442Z,96622.50
2023-01-11T04:44:24.786Z,96627.13
2023-01-11T04:46:51.882Z,96637.56
2023-01-11T04:49:18.663Z,96633.66
2023-01-11T04:51:45.574Z,96621.63
2023-01-11T04:54:12.403Z,96624.88
2023-01-11T04:56:39.331Z,96620.81
2023-01-11T04:59:06.208Z,96625.69
2023-01-11T05:01:33.183Z,96623.56
2023-01-11T05:04:00.020Z,96620.97
2023-01-11T05:06:27.039Z,96613.84
2023-01-11T05:08:53.910Z,96614.47
2023-01-11T05:11:20.867Z,96620.00
2023-01-11T05:13:47.785Z,96616.13
2023-01-11T05:16:19.985Z,96619.38
2023-01-11T05:18:58.867Z,96616.16
2023-01-11T05:21:32.655Z,96616.81
2023-01-11T05:24:01.608Z,96610.63
2023-01-11T05:26:34.632Z,96609.66
2023-01-11T05:29:05.614Z,96611.31
2023-01-11T05:31:34.705Z,96614.59
2023-01-11T05:34:01.671Z,96609.06
2023-01-11T05:36:29.242Z,96603.19
2023-01-11T05:38:57.408Z,96597.53
2023-01-11T05:41:27.026Z,96598.53
2023-01-11T05:44:13.725Z,96604.56
2023-01-11T05:46:43.121Z,96602.31
2023-01-11T05:49:12.590Z,96611.44
2023-01-11T05:51:40.589Z,96611.44
2023-01-11T05:54:12.230Z,96618.13
2023-01-11T05:56:39.481Z,96606.56
2023-01-11T05:59:07.073Z,96604.63
2023-01-11T06:01:34.256Z,96606.25
2023-01-11T06:04:01.527Z,96595.50
2023-01-11T06:06:28.555Z,96600.72
2023-01-11T06:08:55.713Z,96593.56
2023-01-11T06:11:22.727Z,96599.59
2023-01-11T06:13:49.555Z,96601.72
2023-01-11T06:16:19.476Z,96603.81
2023-01-11T06:18:51.569Z,96596.13
2023-01-11T06:21:19.237Z,96603.31
2023-01-11T06:23:50.786Z,96603.31
2023-01-11T06:26:20.983Z,96604.94
2023-01-11T06:28:48.133Z,96601.88
2023-01-11T06:31:17.380Z,96596.50
2023-01-11T06:33:45.318Z,96598.78
2023-01-11T06:36:13.539Z,96577.66
2023-01-11T06:38:41.145Z,96584.16
2023-01-11T06:41:08.883Z,96581.91
2023-01-11T06:43:38.092Z,96594.47
2023-01-11T06:46:05.557Z,96580.28
2023-01-11T06:48:32.437Z,96579.81
2023-01-11T06:50:59.518Z,96568.91
2023-01-11T06:53:29.042Z,96576.41
2023-01-11T06:55:58.364Z,96564.66
2023-01-11T06:58:26.581Z,96564.31
2023-01-11T07:00:55.994Z,96559.09
2023-01-11T07:03:24.887Z,96572.78
2023-01-11T07:05:59.556Z,96574.84
2023-01-11T07:08:26.757Z,96586.72
2023-01-11T07:10:54.090Z,96587.25
2023-01-11T07:13:21.238Z,96588.38
2023-01-11T07:15:50.776Z,96590.69
2023-01-11T07:18:19.634Z,96598.69
2023-01-11T07:20:46.866Z,96597.84
2023-01-11T07:23:14.048Z,96593.00
2023-01-11T07:25:41.223Z,96595.97
2023-01-11T07:28:08.908Z,96590.09
2023-01-11T07:30:56.105Z,96579.03
2023-01-11T07:33:24.548Z,96573.69
2023-01-11T07:35:51.565Z,96580.34
2023-01-11T07:38:18.354Z,96583.31
2023-01-11T07:40:45.217Z,96580.06
2023-01-11T07:43:18.906Z,96575.34
2023-01-11T07:45:51.422Z,96571.25
2023-01-11T07:48:24.652Z,96568.66
2023-01-11T07:50:52.551Z,96562.78
2023-01-11T07:53:19.643Z,96562.47
2023-01-11T07:55:47.253Z,96558.88
2023-01-11T07:58:15.170Z,96565.88
2023-01-11T08:00:42.166Z,96567.38
2023-01-11T08:03:09.868Z,96561.66
2023-01-11T08:05:37.536Z,96552.00
2023-01-11T08:08:05.509Z,96558.19
2023-01-11T08:10:32.723Z,96550.34
2023-01-11T08:13:18.084Z,96547.38
2023-01-11T08:15:45.266Z,96541.84
2023-01-11T08:18:12.636Z,96534.00
2023-01-11T08:20:40.597Z,96538.06
2023-01-11T08:23:10.118Z,96536.56
2023-01-11T08:25:37.564Z,96544.06
2023-01-11T08:28:07.420Z,96535.56
2023-01-11T08:30:35.740Z,96531.63
2023-01-11T08:33:03.923Z,96530.31
2023-01-11T08:35:31.808Z,96523.47
2023-01-11T08:37:58.753Z,96522.78
2023-01-11T08:40:25.793Z,96529.81
2023-01-11T08:42:57.174Z,96531.25
2023-01-11T08:45:24.891Z,96522.56
2023-01-11T08:47:52.349Z,96536.53
2023-01-11T08:50:21.277Z,96547.59
2023-01-11T08:52:50.927Z,96539.81
2023-01-11T08:55:18.789Z,96546.00
2023-01-11T08:57:46.029Z,96546.56
2023-01-11T09:00:14.082Z,96546.00
2023-01-11T09:02:41.001Z,96542.50
2023-01-11T09:05:08.390Z,96548.50
2023-01-11T09:07:35.251Z,96545.78
2023-01-11T09:10:02.113Z,96544.91
2023-01-11T09:12:29.127Z,96546.13
2023-01-11T09:14:55.967Z,96542.53
2023-01-11T09:17:22.801Z,96548.22
2023-01-11T09:19:49.911Z,96546.44
2023-01-11T09:22:16.843Z,96547.53
2023-01-11T09:24:43.675Z,96544.94
2023-01-11T09:27:11.869Z,96540.50
2023-01-11T09:29:38.908Z,96539.78
2023-01-11T09:32:06.374Z,96533.28
2023-01-11T09:34:33.368Z,96535.56
2023-01-11T09:37:02.597Z,96532.03
2023-01-11T09:39:29.655Z,96531.31
2023-01-11T09:42:39.009Z,96531.09
2023-01-11T09:45:19.215Z,96523.75
2023-01-11T09:48:15.349Z,96514.66
2023-01-11T09:50:47.736Z,96525.94
2023-01-11T09:53:31.965Z,96524.75
2023-01-11T09:56:02.340Z,96519.03
2023-01-11T09:58:56.449Z,96518.44
2023-01-11T10:01:34.994Z,96515.94
2023-01-11T10:04:56.741Z,96509.38
2023-01-11T10:18:38.363Z,96488.44
2023-01-11T10:19:49.166Z,96495.38
2023-01-11T10:22:19.748Z,96484.69
2023-01-11T10:25:00.445Z,96478.28
2023-01-11T10:27:38.126Z,96483.44
2023-01-11T10:30:57.415Z,96471.97
2023-01-11T10:33:58.170Z,96475.22
2023-01-11T10:36:55.276Z,96483.91
2023-01-11T10:39:56.763Z,96479.41
2023-01-11T10:42:29.621Z,96481.25
2023-01-11T10:45:39.579Z,96473.09
2023-01-11T10:48:23.696Z,96469.41
2023-01-11T10:51:27.960Z,96465.84
2023-01-11T10:57:04.794Z,96448.56
2023-01-11T10:59:35.045Z,96451.59
2023-01-11T11:02:35.540Z,96453.19
2023-01-11T11:05:36.498Z,96438.53
2023-01-11T11:08:15.794Z,96449.13
2023-01-11T11:11:00.482Z,96445.94
2023-01-11T11:13:38.975Z,96439.78
2023-01-11T11:16:24.490Z,96429.94
2023-01-11T11:18:55.593Z,96430.31
2023-01-11T11:21:40.642Z,96423.28
2023-01-11T11:24:23.200Z,96419.16
2023-01-11T11:26:59.402Z,96414.06
2023-01-11T11:29:30.570Z,96415.59
2023-01-11T11:32:00.616Z,96415.94
2023-01-11T11:34:28.434Z,96403.72
2023-01-11T11:36:59.388Z,96401.41
2023-01-11T11:39:33.112Z,96400.66
2023-01-11T11:42:15.240Z,96402.69
2023-01-11T11:44:42.434Z,96396.75
2023-01-11T11:47:16.797Z,96392.66
2023-01-11T11:49:44.209Z,96386.84
2023-01-11T11:52:17.457Z,96389.22
2023-01-11T11:54:56.914Z,96386.59
2023-01-11T11:57:29.812Z,96383.66
2023-01-11T12:00:22.926Z,96377.22
2023-01-11T12:02:55.645Z,96370.41
2023-01-11T12:05:22.656Z,96368.13
2023-01-11T12:07:55.287Z,96367.34
2023-01-11T12:10:27.226Z,96365.34
2023-01-11T12:13:02.691Z,96362.59
2023-01-11T12:15:34.878Z,96360.59
2023-01-11T12:18:32.722Z,96366.59
2023-01-11T12:21:23.583Z,96361.56
2023-01-11T12:24:19.265Z,96360.09
2023-01-11T12:27:43.019Z,96363.44
2023-01-11T12:30:27.287Z,96350.28
2023-01-11T12:33:12.597Z,96360.28
2023-01-11T12:35:50.046Z,96358.09
2023-01-11T12:38:50.838Z,96348.25
2023-01-11T12:41:48.179Z,96344.44
2023-01-11T12:44:46.907Z,96346.56
2023-01-11T12:47:47.816Z,96330.94
2023-01-11T12:50:31.851Z,96333.34
2023-01-11T12:53:12.411Z,96342.50
2023-01-11T12:56:09.951Z,96324.50
2023-01-11T12:58:50.091Z,96327.72
2023-01-11T13:01:38.111Z,96324.16
2023-01-11T13:04:23.675Z,96327.13
2023-01-11T13:07:23.877Z,96323.88
2023-01-11T13:10:43.033Z,96323.72
2023-01-11T13:13:18.258Z,96327.44
2023-01-11T13:15:59.878Z,96331.41
2023-01-11T13:18:26.621Z,96327.59
2023-01-11T13:21:40.937Z,96331.00
2023-01-11T13:24:25.332Z,96324.31
2023-01-11T13:27:02.882Z,96319.59
2023-01-11T13:29:42.129Z,96318.22
2023-01-11T13:32:16.634Z,96319.78
2023-01-11T13:34:52.381Z,96323.47
2023-01-11T13:37:37.991Z,96318.09
2023-01-11T13:40:25.089Z,96329.09
2023-01-11T13:43:03.878Z,96324.25
2023-01-11T13:45:40.455Z,96329.53
2023-01-11T13:48:26.775Z,96323.03
2023-01-11T13:51:31.532Z,96335.25
2023-01-11T13:54:27.631Z,96335.56
2023-01-11T13:57:03.707Z,96331.59
2023-01-11T13:59:42.533Z,96344.91
2023-01-11T14:02:23.592Z,96341.50
2023-01-11T14:05:28.415Z,96345.78
2023-01-11T14:08:45.876Z,96343.28
2023-01-11T14:11:44.863Z,96348.13
2023-01-11T14:14:32.592Z,96353.50
2023-01-11T14:17:05.210Z,96363.63
2023-01-11T14:19:59.014Z,96347.81
2023-01-11T14:22:47.847Z,96357.53
2023-01-11T14:25:32.883Z,96367.66
2023-01-11T14:28:36.911Z,96368.06
2023-01-11T14:31:43.808Z,96360.38
2023-01-11T14:35:13.810Z,96365.81
2023-01-11T14:38:20.664Z,96371.69
2023-01-11T14:41:05.037Z,96359.09
2023-01-11T14:43:58.573Z,96368.34
2023-01-11T14:46:39.104Z,96365.13
2023-01-11T14:49:10.674Z,96373.63
2023-01-11T14:51:43.604Z,96378.09
2023-01-11T14:54:25.507Z,96371.59
2023-01-11T14:56:56.047Z,96362.63
2023-01-11T14:59:31.658Z,96378.88
2023-01-11T15:02:25.469Z,96372.13
2023-01-11T15:04:52.513Z,96375.50
2023-01-11T15:07:30.973Z,96379.63
2023-01-11T15:10:24.781Z,96383.19
2023-01-11T15:12:56.917Z,96381.25
2023-01-11T15:15:48.533Z,96382.66
2023-01-11T15:18:23.189Z,96384.06
2023-01-11T15:21:03.801Z,96377.97
2023-01-11T15:23:45.876Z,96384.03
2023-01-11T15:26:18.147Z,96392.84
2023-01-11T15:28:49.950Z,96394.38
2023-01-11T15:31:46.917Z,96392.44
2023-01-11T15:34:44.149Z,96393.47
2023-01-11T15:37:22.897Z,96396.00
2023-01-11T15:40:32.218Z,96399.63
2023-01-11T15:43:32.727Z,96404.44
2023-01-11T15:46:46.137Z,96411.59
2023-01-11T15:50:07.312Z,96415.53
2023-01-11T15:52:50.274Z,96423.72
2023-01-11T15:56:12.614Z,96432.00
2023-01-11T15:59:15.958Z,96420.97
2023-01-11T16:02:13.742Z,96438.63
2023-01-11T16:05:18.736Z,96433.66
2023-01-11T16:08:13.048Z,96446.63
2023-01-11T16:11:00.782Z,96445.28
2023-01-11T16:13:44.677Z,96443.50
2023-01-11T16:16:31.954Z,96455.31
2023-01-11T16:19:12.970Z,96449.47
2023-01-11T16:21:42.085Z,96458.63
2023-01-11T16:24:17.820Z,96466.56
2023-01-11T16:26:50.333Z,96462.19
2023-01-11T16:29:27.587Z,96463.06
2023-01-11T16:32:32.690Z,96475.03
2023-01-11T16:35:02.225Z,96470.31
2023-01-11T16:37:44.209Z,96476.03
2023-01-11T16:40:11.388Z,96485.78
2023-01-11T16:43:19.023Z,96486.28
2023-01-11T16:45:54.077Z,96487.91
2023-01-11T16:48:28.643Z,96491.25
2023-01-11T16:51:16.976Z,96499.38
2023-01-11T16:53:54.267Z,96494.06
2023-01-11T16:56:23.630Z,96505.19
2023-01-11T16:59:30.567Z,96508.22
2023-01-11T17:02:01.061Z,96513.66
2023-01-11T17:04:50.068Z,96508.03
2023-01-11T17:07:19.704Z,96525.47
2023-01-11T17:09:46.626Z,96527.84
2023-01-11T17:12:26.391Z,96529.22
2023-01-11T17:15:28.227Z,96535.16
2023-01-11T17:17:55.218Z,96540.66
2023-01-11T17:20:29.050Z,96544.84
2023-01-11T17:22:57.315Z,96547.28
2023-01-11T17:25:41.116Z,96556.00
2023-01-11T17:28:19.848Z,96568.19
2023-01-11T17:30:49.862Z,96570.78
2023-01-11T17:33:33.355Z,96587.03
2023-01-11T17:36:01.617Z,96576.25
2023-01-11T17:38:29.387Z,96572.78
2023-01-11T17:40:57.711Z,96577.19
2023-01-11T17:43:46.847Z,96578.38
2023-01-11T17:46:24.417Z,96584.59
2023-01-11T17:49:00.236Z,96589.09
2023-01-11T17:51:31.378Z,96601.16
2023-01-11T17:53:59.719Z,96603.22
2023-01-11T17:56:43.240Z,96585.56
2023-01-11T17:59:15.759Z,96580.34
2023-01-11T18:02:02.840Z,96589.50
2023-01-11T18:04:31.390Z,96590.66
2023-01-11T18:07:19.057Z,96595.81
2023-01-11T18:09:49.130Z,96598.44
2023-01-11T18:12:28.699Z,96601.59
2023-01-11T18:15:00.354Z,96602.88
2023-01-11T18:17:35.038Z,96608.13
2023-01-11T18:20:32.332Z,96604.41
2023-01-11T18:23:07.786Z,96610.09
2023-01-11T18:25:35.600Z,96611.09
2023-01-11T18:28:25.561Z,96616.81
2023-01-11T18:30:54.471Z,96621.84
2023-01-11T18:33:25.252Z,96638.41
2023-01-11T18:35:57.819Z,96633.88
2023-01-11T18:38:32.086Z,96631.47
2023-01-11T18:41:24.926Z,96636.63
2023-01-11T18:43:53.370Z,96636.88
2023-01-11T18:46:20.745Z,96653.25
2023-01-11T18:48:47.624Z,96652.47
2023-01-11T18:51:20.933Z,96653.19
2023-01-11T18:53:47.738Z,96646.84
2023-01-11T18:56:16.283Z,96656.16
2023-01-11T18:58:43.296Z,96667.47
2023-01-11T19:01:10.609Z,96656.50
2023-01-11T19:03:37.815Z,96666.91
2023-01-11T19:06:05.825Z,96659.59
2023-01-11T19:08:33.034Z,96649.72
2023-01-11T19:10:59.829Z,96657.63
2023-01-11T19:13:26.665Z,96660.66
2023-01-11T19:15:53.722Z,96658.97
2023-01-11T19:18:20.716Z,96664.22
2023-01-11T19:20:47.526Z,96658.50
2023-01-11T19:23:14.391Z,96669.00
2023-01-11T19:25:41.586Z,96681.56
2023-01-11T19:28:08.464Z,96679.97
2023-01-11T19:30:35.311Z,96687.38
2023-01-11T19:33:02.179Z,96688.75
2023-01-11T19:35:28.977Z,96703.81
2023-01-11T19:37:56.187Z,96699.91
2023-01-11T19:40:23.052Z,96705.38
2023-01-11T19:42:52.397Z,96712.22
2023-01-11T19:45:19.299Z,96716.66
2023-01-11T19:47:47.340Z,96716.00
2023-01-11T19:50:14.488Z,96720.00
2023-01-11T19:52:41.332Z,96720.25
2023-01-11T19:55:09.624Z,96734.81
2023-01-11T19:57:36.663Z,96729.84
2023-01-11T20:00:05.318Z,96731.47
2023-01-11T20:02:32.219Z,96734.06
2023-01-11T20:04:59.059Z,96739.34
2023-01-11T20:07:25.914Z,96743.56
2023-01-11T20:09:52.765Z,96740.34
2023-01-11T20:12:19.687Z,96748.28
2023-01-11T20:14:46.690Z,96738.59
2023-01-11T20:17:14.361Z,96747.09
2023-01-11T20:19:43.138Z,96762.25
2023-01-11T20:22:10.120Z,96757.84
2023-01-11T20:24:36.952Z,96752.00
2023-01-11T20:27:03.922Z,96754.56
2023-01-11T20:29:30.824Z,96758.91
2023-01-11T20:32:13.400Z,96759.81
2023-01-11T20:34:44.842Z,96774.94
2023-01-11T20:37:11.650Z,96772.31
2023-01-11T20:39:38.516Z,96781.00
2023-01-11T20:42:05.310Z,96780.53
2023-01-11T20:44:32.331Z,96776.66
2023-01-11T20:46:59.971Z,96788.03
2023-01-11T20:49:31.588Z,96791.16
2023-01-11T20:51:58.753Z,96786.81
2023-01-11T20:54:26.040Z,96781.13
2023-01-11T20:56:53.101Z,96786.00
2023-01-11T20:59:20.645Z,96788.22
2023-01-11T21:01:49.412Z,96781.28
2023-01-11T21:04:18.368Z,96769.00
2023-01-11T21:06:50.475Z,96772.25
2023-01-11T21:09:18.659Z,96777.47
2023-01-11T21:11:52.493Z,96783.91
2023-01-11T21:14:22.887Z,96781.22
2023-01-11T21:16:50.097Z,96780.53
2023-01-11T21:19:17.438Z,96777.44
2023-01-11T21:21:44.618Z,96777.72
2023-01-11T21:24:15.974Z,96777.91
2023-01-11T21:26:45.123Z,96782.16
2023-01-11T21:29:12.300Z,96790.34
2023-01-11T21:31:40.059Z,96791.63
2023-01-11T21:34:07.635Z,96788.69
2023-01-11T21:36:34.627Z,96783.16
2023-01-11T21:39:02.775Z,96798.56
2023-01-11T21:41:52.096Z,96795.38
2023-01-11T21:44:20.890Z,96796.59
2023-01-11T21:46:48.628Z,96792.25
2023-01-11T21:49:16.492Z,96802.03
2023-01-11T21:51:43.664Z,96809.59
2023-01-11T21:54:14.008Z,96807.28
2023-01-11T21:56:43.958Z,96814.31
2023-01-11T21:59:11.104Z,96819.72
2023-01-11T22:01:39.942Z,96829.50
2023-01-11T22:04:12.940Z,96838.03
2023-01-11T22:06:42.833Z,96840.00
2023-01-11T22:09:11.735Z,96854.38
2023-01-11T22:11:39.760Z,96842.50
2023-01-11T22:14:08.604Z,96845.16
2023-01-11T22:16:37.094Z,96849.31
2023-01-11T22:19:07.669Z,96852.25
2023-01-11T22:21:36.671Z,96857.75
2023-01-11T22:24:05.251Z,96853.31
2023-01-11T22:26:35.651Z,96839.81
2023-01-11T22:29:17.623Z,96847.66
2023-01-11T22:31:54.820Z,96846.72
2023-01-11T22:34:23.271Z,96848.03
2023-01-11T22:36:50.639Z,96854.53
2023-01-11T22:39:19.570Z,96861.72
2023-01-11T22:41:50.111Z,96855.53
2023-01-11T22:44:17.421Z,96862.75
2023-01-11T22:46:44.555Z,96859.47
2023-01-11T22:49:12.075Z,96861.97
2023-01-11T22:51:41.681Z,96854.28
2023-01-11T22:54:09.194Z,96855.16
2023-01-11T22:56:36.344Z,96864.22
2023-01-11T22:59:03.274Z,96860.81
2023-01-11T23:01:34.072Z,96874.44
2023-01-11T23:04:02.540Z,96876.28
2023-01-11T23:06:36.364Z,96875.75
2023-01-11T23:09:06.083Z,96873.47
2023-01-11T23:11:56.050Z,96876.59
2023-01-11T23:14:26.770Z,96880.72
2023-01-11T23:16:53.661Z,96882.38
2023-01-11T23:19:20.711Z,96880.75
2023-01-11T23:21:47.803Z,96888.31
2023-01-11T23:24:16.674Z,96879.66
2023-01-11T23:26:45.083Z,96884.75
2023-01-11T23:29:12.226Z,96882.47
2023-01-11T23:31:39.460Z,96884.94
2023-01-11T23:34:08.334Z,96883.28
2023-01-11T23:36:41.823Z,96891.97
2023-01-11T23:39:15.566Z,96900.78
2023-01-11T23:42:01.198Z,96893.59
2023-01-11T23:44:28.110Z,96907.00
2023-01-11T23:47:13.418Z,96901.91
2023-01-11T23:49:40.365Z,96898.66
2023-01-11T23:52:07.498Z,96888.50
2023-01-11T23:54:34.914Z,96893.25
2023-01-11T23:57:03.763Z,96901.41
2023-01-11T23:59:31.078Z,96894.56
